sensor_id;sensor_type;location;lat;lon;timestamp;P1;durP1;ratioP1;P2;durP2;ratioP2
5022;SDS011;2530;47.990;7.866;2023-04-15T00:00:08;3.13;;;1.65;;
5022;SDS011;2530;47.990;7.866;2023-04-15T00:02:35;2.13;;;1.30;;
5022;SDS011;2530;47.990;7.866;2023-04-15T00:05:01;2.10;;;1.60;;
5022;SDS011;2530;47.990;7.866;2023-04-15T00:07:27;1.88;;;1.33;;
5022;SDS011;2530;47.990;7.866;2023-04-15T00:09:53;2.92;;;1.63;;
5022;SDS011;2530;47.990;7.866;2023-04-15T00:12:21;1.42;;;1.33;;
5022;SDS011;2530;47.990;7.866;2023-04-15T00:14:47;1.30;;;1.20;;
5022;SDS011;2530;47.990;7.866;2023-04-15T00:17:14;2.83;;;1.33;;
5022;SDS011;2530;47.990;7.866;2023-04-15T00:19:39;2.60;;;1.40;;
5022;SDS011;2530;47.990;7.866;2023-04-15T00:22:05;2.20;;;1.40;;
5022;SDS011;2530;47.990;7.866;2023-04-15T00:24:31;4.40;;;1.30;;
5022;SDS011;2530;47.990;7.866;2023-04-15T00:26:56;3.03;;;1.20;;
5022;SDS011;2530;47.990;7.866;2023-04-15T00:29:22;2.03;;;1.30;;
5022;SDS011;2530;47.990;7.866;2023-04-15T00:31:48;2.58;;;1.40;;
5022;SDS011;2530;47.990;7.866;2023-04-15T00:34:14;2.42;;;1.63;;
5022;SDS011;2530;47.990;7.866;2023-04-15T00:36:39;4.70;;;1.50;;
5022;SDS011;2530;47.990;7.866;2023-04-15T00:39:05;2.72;;;1.15;;
5022;SDS011;2530;47.990;7.866;2023-04-15T00:41:30;3.85;;;1.77;;
5022;SDS011;2530;47.990;7.866;2023-04-15T00:43:58;2.58;;;1.40;;
5022;SDS011;2530;47.990;7.866;2023-04-15T00:46:24;1.65;;;1.20;;
5022;SDS011;2530;47.990;7.866;2023-04-15T00:48:52;2.00;;;1.30;;
5022;SDS011;2530;47.990;7.866;2023-04-15T00:51:18;4.13;;;1.52;;
5022;SDS011;2530;47.990;7.866;2023-04-15T00:53:44;2.60;;;1.57;;
5022;SDS011;2530;47.990;7.866;2023-04-15T00:56:10;1.60;;;1.10;;
5022;SDS011;2530;47.990;7.866;2023-04-15T00:58:36;1.30;;;1.17;;
5022;SDS011;2530;47.990;7.866;2023-04-15T01:01:01;2.50;;;1.48;;
5022;SDS011;2530;47.990;7.866;2023-04-15T01:03:28;2.90;;;1.20;;
5022;SDS011;2530;47.990;7.866;2023-04-15T01:05:54;2.85;;;1.13;;
5022;SDS011;2530;47.990;7.866;2023-04-15T01:08:25;2.30;;;1.30;;
5022;SDS011;2530;47.990;7.866;2023-04-15T01:10:53;1.90;;;1.27;;
5022;SDS011;2530;47.990;7.866;2023-04-15T01:13:20;2.30;;;1.35;;
5022;SDS011;2530;47.990;7.866;2023-04-15T01:15:48;1.92;;;1.30;;
5022;SDS011;2530;47.990;7.866;2023-04-15T01:18:14;3.17;;;1.70;;
5022;SDS011;2530;47.990;7.866;2023-04-15T01:20:39;3.40;;;1.38;;
5022;SDS011;2530;47.990;7.866;2023-04-15T01:23:05;1.23;;;1.00;;
5022;SDS011;2530;47.990;7.866;2023-04-15T01:25:31;3.78;;;1.70;;
5022;SDS011;2530;47.990;7.866;2023-04-15T01:27:58;2.80;;;1.50;;
5022;SDS011;2530;47.990;7.866;2023-04-15T01:30:24;2.15;;;1.30;;
5022;SDS011;2530;47.990;7.866;2023-04-15T01:32:50;2.08;;;1.20;;
5022;SDS011;2530;47.990;7.866;2023-04-15T01:35:17;3.10;;;1.30;;
5022;SDS011;2530;47.990;7.866;2023-04-15T01:37:42;2.33;;;1.50;;
5022;SDS011;2530;47.990;7.866;2023-04-15T01:40:08;3.25;;;1.45;;
5022;SDS011;2530;47.990;7.866;2023-04-15T01:42:37;1.70;;;1.00;;
5022;SDS011;2530;47.990;7.866;2023-04-15T01:45:02;2.78;;;1.23;;
5022;SDS011;2530;47.990;7.866;2023-04-15T01:47:28;1.70;;;1.30;;
5022;SDS011;2530;47.990;7.866;2023-04-15T01:49:54;3.30;;;1.25;;
5022;SDS011;2530;47.990;7.866;2023-04-15T01:52:20;1.98;;;1.27;;
5022;SDS011;2530;47.990;7.866;2023-04-15T01:54:45;2.47;;;1.20;;
5022;SDS011;2530;47.990;7.866;2023-04-15T01:57:11;1.80;;;1.10;;
5022;SDS011;2530;47.990;7.866;2023-04-15T01:59:36;2.67;;;1.13;;
5022;SDS011;2530;47.990;7.866;2023-04-15T02:02:02;1.20;;;0.90;;
5022;SDS011;2530;47.990;7.866;2023-04-15T02:04:28;1.95;;;1.25;;
5022;SDS011;2530;47.990;7.866;2023-04-15T02:06:53;4.20;;;1.20;;
5022;SDS011;2530;47.990;7.866;2023-04-15T02:09:19;1.70;;;1.20;;
5022;SDS011;2530;47.990;7.866;2023-04-15T02:11:45;1.70;;;1.03;;
5022;SDS011;2530;47.990;7.866;2023-04-15T02:14:10;1.90;;;0.90;;
5022;SDS011;2530;47.990;7.866;2023-04-15T02:16:36;1.20;;;1.00;;
5022;SDS011;2530;47.990;7.866;2023-04-15T02:19:02;2.03;;;0.90;;
5022;SDS011;2530;47.990;7.866;2023-04-15T02:21:28;3.00;;;1.20;;
5022;SDS011;2530;47.990;7.866;2023-04-15T02:23:54;1.30;;;1.20;;
5022;SDS011;2530;47.990;7.866;2023-04-15T02:26:20;1.60;;;1.10;;
5022;SDS011;2530;47.990;7.866;2023-04-15T02:28:46;2.70;;;1.10;;
5022;SDS011;2530;47.990;7.866;2023-04-15T02:31:12;1.63;;;1.30;;
5022;SDS011;2530;47.990;7.866;2023-04-15T02:33:38;1.70;;;1.08;;
5022;SDS011;2530;47.990;7.866;2023-04-15T02:36:04;2.80;;;1.00;;
5022;SDS011;2530;47.990;7.866;2023-04-15T02:38:30;2.63;;;1.20;;
5022;SDS011;2530;47.990;7.866;2023-04-15T02:40:56;2.23;;;1.20;;
5022;SDS011;2530;47.990;7.866;2023-04-15T02:43:21;2.55;;;1.08;;
5022;SDS011;2530;47.990;7.866;2023-04-15T02:45:47;2.30;;;1.30;;
5022;SDS011;2530;47.990;7.866;2023-04-15T02:48:13;1.60;;;1.48;;
5022;SDS011;2530;47.990;7.866;2023-04-15T02:50:38;1.63;;;1.10;;
5022;SDS011;2530;47.990;7.866;2023-04-15T02:53:04;1.30;;;1.20;;
5022;SDS011;2530;47.990;7.866;2023-04-15T02:55:30;2.13;;;1.20;;
5022;SDS011;2530;47.990;7.866;2023-04-15T02:57:56;2.53;;;1.40;;
5022;SDS011;2530;47.990;7.866;2023-04-15T03:00:25;2.60;;;1.02;;
5022;SDS011;2530;47.990;7.866;2023-04-15T03:02:51;3.17;;;1.60;;
5022;SDS011;2530;47.990;7.866;2023-04-15T03:05:21;2.13;;;1.20;;
5022;SDS011;2530;47.990;7.866;2023-04-15T03:07:50;2.70;;;1.40;;
5022;SDS011;2530;47.990;7.866;2023-04-15T03:10:16;3.20;;;1.30;;
5022;SDS011;2530;47.990;7.866;2023-04-15T03:12:41;1.50;;;1.10;;
5022;SDS011;2530;47.990;7.866;2023-04-15T03:15:07;2.83;;;1.30;;
5022;SDS011;2530;47.990;7.866;2023-04-15T03:17:33;2.92;;;1.40;;
5022;SDS011;2530;47.990;7.866;2023-04-15T03:20:00;2.25;;;1.48;;
5022;SDS011;2530;47.990;7.866;2023-04-15T03:22:27;2.30;;;1.60;;
5022;SDS011;2530;47.990;7.866;2023-04-15T03:24:53;2.75;;;1.90;;
5022;SDS011;2530;47.990;7.866;2023-04-15T03:27:18;3.55;;;2.40;;
5022;SDS011;2530;47.990;7.866;2023-04-15T03:29:44;3.00;;;2.20;;
5022;SDS011;2530;47.990;7.866;2023-04-15T03:32:10;2.88;;;2.08;;
5022;SDS011;2530;47.990;7.866;2023-04-15T03:34:36;3.33;;;2.10;;
5022;SDS011;2530;47.990;7.866;2023-04-15T03:37:02;1.77;;;1.60;;
5022;SDS011;2530;47.990;7.866;2023-04-15T03:39:27;3.57;;;1.70;;
5022;SDS011;2530;47.990;7.866;2023-04-15T03:41:53;2.77;;;1.60;;
5022;SDS011;2530;47.990;7.866;2023-04-15T03:44:18;2.90;;;1.90;;
5022;SDS011;2530;47.990;7.866;2023-04-15T03:46:44;2.00;;;1.50;;
5022;SDS011;2530;47.990;7.866;2023-04-15T03:49:09;3.53;;;1.30;;
5022;SDS011;2530;47.990;7.866;2023-04-15T03:51:35;2.47;;;1.60;;
5022;SDS011;2530;47.990;7.866;2023-04-15T03:54:00;3.67;;;1.90;;
5022;SDS011;2530;47.990;7.866;2023-04-15T03:56:26;2.20;;;1.40;;
5022;SDS011;2530;47.990;7.866;2023-04-15T03:58:52;2.03;;;1.93;;
5022;SDS011;2530;47.990;7.866;2023-04-15T04:01:17;1.97;;;1.40;;
5022;SDS011;2530;47.990;7.866;2023-04-15T04:03:43;3.17;;;1.70;;
5022;SDS011;2530;47.990;7.866;2023-04-15T04:06:08;2.50;;;1.63;;
5022;SDS011;2530;47.990;7.866;2023-04-15T04:08:36;1.80;;;1.23;;
5022;SDS011;2530;47.990;7.866;2023-04-15T04:11:02;3.60;;;1.50;;
5022;SDS011;2530;47.990;7.866;2023-04-15T04:13:27;4.40;;;1.88;;
5022;SDS011;2530;47.990;7.866;2023-04-15T04:15:53;2.40;;;1.60;;
5022;SDS011;2530;47.990;7.866;2023-04-15T04:18:18;2.80;;;1.40;;
5022;SDS011;2530;47.990;7.866;2023-04-15T04:20:44;3.20;;;1.40;;
5022;SDS011;2530;47.990;7.866;2023-04-15T04:23:10;2.30;;;1.20;;
5022;SDS011;2530;47.990;7.866;2023-04-15T04:25:35;1.80;;;1.40;;
5022;SDS011;2530;47.990;7.866;2023-04-15T04:28:01;3.07;;;1.60;;
5022;SDS011;2530;47.990;7.866;2023-04-15T04:30:27;2.42;;;1.42;;
5022;SDS011;2530;47.990;7.866;2023-04-15T04:32:53;3.63;;;1.60;;
5022;SDS011;2530;47.990;7.866;2023-04-15T04:35:18;2.67;;;1.42;;
5022;SDS011;2530;47.990;7.866;2023-04-15T04:37:44;3.55;;;1.88;;
5022;SDS011;2530;47.990;7.866;2023-04-15T04:40:10;1.73;;;1.30;;
5022;SDS011;2530;47.990;7.866;2023-04-15T04:42:36;1.65;;;1.10;;
5022;SDS011;2530;47.990;7.866;2023-04-15T04:45:01;1.90;;;1.27;;
5022;SDS011;2530;47.990;7.866;2023-04-15T04:47:27;2.00;;;1.48;;
5022;SDS011;2530;47.990;7.866;2023-04-15T04:49:54;2.25;;;1.60;;
5022;SDS011;2530;47.990;7.866;2023-04-15T04:52:19;2.78;;;1.52;;
5022;SDS011;2530;47.990;7.866;2023-04-15T04:54:45;1.80;;;1.45;;
5022;SDS011;2530;47.990;7.866;2023-04-15T04:57:11;2.30;;;1.40;;
5022;SDS011;2530;47.990;7.866;2023-04-15T04:59:37;1.73;;;1.40;;
5022;SDS011;2530;47.990;7.866;2023-04-15T05:02:03;2.03;;;1.40;;
5022;SDS011;2530;47.990;7.866;2023-04-15T05:04:29;1.80;;;1.40;;
5022;SDS011;2530;47.990;7.866;2023-04-15T05:06:55;1.60;;;1.20;;
5022;SDS011;2530;47.990;7.866;2023-04-15T05:09:21;3.13;;;1.47;;
5022;SDS011;2530;47.990;7.866;2023-04-15T05:11:47;3.00;;;1.10;;
5022;SDS011;2530;47.990;7.866;2023-04-15T05:14:12;1.80;;;1.00;;
5022;SDS011;2530;47.990;7.866;2023-04-15T05:16:38;2.00;;;1.10;;
5022;SDS011;2530;47.990;7.866;2023-04-15T05:19:03;1.42;;;1.15;;
5022;SDS011;2530;47.990;7.866;2023-04-15T05:21:29;1.70;;;1.40;;
5022;SDS011;2530;47.990;7.866;2023-04-15T05:23:55;2.70;;;1.20;;
5022;SDS011;2530;47.990;7.866;2023-04-15T05:26:21;2.80;;;1.30;;
5022;SDS011;2530;47.990;7.866;2023-04-15T05:28:48;1.90;;;1.50;;
5022;SDS011;2530;47.990;7.866;2023-04-15T05:31:14;3.45;;;1.50;;
5022;SDS011;2530;47.990;7.866;2023-04-15T05:33:40;3.22;;;1.30;;
5022;SDS011;2530;47.990;7.866;2023-04-15T05:36:05;2.80;;;1.20;;
5022;SDS011;2530;47.990;7.866;2023-04-15T05:38:31;2.30;;;1.40;;
5022;SDS011;2530;47.990;7.866;2023-04-15T05:40:56;3.10;;;1.50;;
5022;SDS011;2530;47.990;7.866;2023-04-15T05:43:22;3.35;;;1.15;;
5022;SDS011;2530;47.990;7.866;2023-04-15T05:45:48;3.85;;;1.38;;
5022;SDS011;2530;47.990;7.866;2023-04-15T05:48:13;1.88;;;1.40;;
5022;SDS011;2530;47.990;7.866;2023-04-15T05:50:42;1.70;;;1.37;;
5022;SDS011;2530;47.990;7.866;2023-04-15T05:53:07;2.03;;;1.20;;
5022;SDS011;2530;47.990;7.866;2023-04-15T05:55:33;1.60;;;1.40;;
5022;SDS011;2530;47.990;7.866;2023-04-15T05:57:59;2.90;;;1.50;;
5022;SDS011;2530;47.990;7.866;2023-04-15T06:00:24;2.40;;;1.70;;
5022;SDS011;2530;47.990;7.866;2023-04-15T06:02:50;2.00;;;1.70;;
5022;SDS011;2530;47.990;7.866;2023-04-15T06:05:16;2.28;;;1.40;;
5022;SDS011;2530;47.990;7.866;2023-04-15T06:07:42;1.92;;;1.30;;
5022;SDS011;2530;47.990;7.866;2023-04-15T06:10:08;1.80;;;1.40;;
5022;SDS011;2530;47.990;7.866;2023-04-15T06:12:34;1.90;;;1.30;;
5022;SDS011;2530;47.990;7.866;2023-04-15T06:14:59;2.97;;;1.40;;
5022;SDS011;2530;47.990;7.866;2023-04-15T06:17:25;2.83;;;1.57;;
5022;SDS011;2530;47.990;7.866;2023-04-15T06:19:51;3.53;;;1.70;;
5022;SDS011;2530;47.990;7.866;2023-04-15T06:22:20;2.40;;;1.40;;
5022;SDS011;2530;47.990;7.866;2023-04-15T06:24:47;3.47;;;1.75;;
5022;SDS011;2530;47.990;7.866;2023-04-15T06:27:14;2.22;;;1.70;;
5022;SDS011;2530;47.990;7.866;2023-04-15T06:29:40;2.53;;;1.70;;
5022;SDS011;2530;47.990;7.866;2023-04-15T06:32:05;1.80;;;1.30;;
5022;SDS011;2530;47.990;7.866;2023-04-15T06:34:31;2.60;;;1.67;;
5022;SDS011;2530;47.990;7.866;2023-04-15T06:36:57;2.27;;;1.63;;
5022;SDS011;2530;47.990;7.866;2023-04-15T06:39:22;2.63;;;1.60;;
5022;SDS011;2530;47.990;7.866;2023-04-15T06:41:48;2.30;;;1.63;;
5022;SDS011;2530;47.990;7.866;2023-04-15T06:44:13;2.60;;;1.40;;
5022;SDS011;2530;47.990;7.866;2023-04-15T06:46:39;3.50;;;1.70;;
5022;SDS011;2530;47.990;7.866;2023-04-15T06:49:05;2.57;;;1.67;;
5022;SDS011;2530;47.990;7.866;2023-04-15T06:51:30;1.50;;;1.40;;
5022;SDS011;2530;47.990;7.866;2023-04-15T06:53:56;2.80;;;1.58;;
5022;SDS011;2530;47.990;7.866;2023-04-15T06:56:22;1.58;;;1.33;;
5022;SDS011;2530;47.990;7.866;2023-04-15T06:58:47;2.40;;;1.50;;
5022;SDS011;2530;47.990;7.866;2023-04-15T07:01:13;2.53;;;1.42;;
5022;SDS011;2530;47.990;7.866;2023-04-15T07:03:38;3.23;;;1.40;;
5022;SDS011;2530;47.990;7.866;2023-04-15T07:06:05;2.90;;;1.30;;
5022;SDS011;2530;47.990;7.866;2023-04-15T07:08:31;2.10;;;1.80;;
5022;SDS011;2530;47.990;7.866;2023-04-15T07:10:58;2.03;;;1.48;;
5022;SDS011;2530;47.990;7.866;2023-04-15T07:13:24;2.85;;;1.60;;
5022;SDS011;2530;47.990;7.866;2023-04-15T07:15:50;2.80;;;1.30;;
5022;SDS011;2530;47.990;7.866;2023-04-15T07:18:15;4.30;;;1.70;;
5022;SDS011;2530;47.990;7.866;2023-04-15T07:20:41;3.08;;;1.30;;
5022;SDS011;2530;47.990;7.866;2023-04-15T07:23:07;1.40;;;1.10;;
5022;SDS011;2530;47.990;7.866;2023-04-15T07:25:33;1.70;;;1.50;;
5022;SDS011;2530;47.990;7.866;2023-04-15T07:27:58;2.38;;;1.38;;
5022;SDS011;2530;47.990;7.866;2023-04-15T07:30:24;2.30;;;1.70;;
5022;SDS011;2530;47.990;7.866;2023-04-15T07:32:49;1.70;;;1.33;;
5022;SDS011;2530;47.990;7.866;2023-04-15T07:35:15;1.73;;;1.30;;
5022;SDS011;2530;47.990;7.866;2023-04-15T07:37:40;2.40;;;1.40;;
5022;SDS011;2530;47.990;7.866;2023-04-15T07:40:07;3.20;;;1.92;;
5022;SDS011;2530;47.990;7.866;2023-04-15T07:42:33;3.20;;;1.50;;
5022;SDS011;2530;47.990;7.866;2023-04-15T07:44:59;1.73;;;1.50;;
5022;SDS011;2530;47.990;7.866;2023-04-15T07:47:25;2.07;;;1.70;;
5022;SDS011;2530;47.990;7.866;2023-04-15T07:49:51;1.60;;;1.50;;
5022;SDS011;2530;47.990;7.866;2023-04-15T07:52:17;2.73;;;1.33;;
5022;SDS011;2530;47.990;7.866;2023-04-15T07:54:42;2.37;;;1.80;;
5022;SDS011;2530;47.990;7.866;2023-04-15T07:57:08;2.88;;;1.63;;
5022;SDS011;2530;47.990;7.866;2023-04-15T07:59:34;3.10;;;1.50;;
5022;SDS011;2530;47.990;7.866;2023-04-15T08:02:00;3.90;;;1.50;;
5022;SDS011;2530;47.990;7.866;2023-04-15T08:04:26;2.00;;;1.52;;
5022;SDS011;2530;47.990;7.866;2023-04-15T08:06:52;2.22;;;1.60;;
5022;SDS011;2530;47.990;7.866;2023-04-15T08:09:18;1.52;;;1.23;;
5022;SDS011;2530;47.990;7.866;2023-04-15T08:11:45;1.80;;;1.33;;
5022;SDS011;2530;47.990;7.866;2023-04-15T08:14:13;1.40;;;1.30;;
5022;SDS011;2530;47.990;7.866;2023-04-15T08:16:38;1.50;;;1.10;;
5022;SDS011;2530;47.990;7.866;2023-04-15T08:19:04;3.40;;;1.40;;
5022;SDS011;2530;47.990;7.866;2023-04-15T08:21:30;1.87;;;1.50;;
5022;SDS011;2530;47.990;7.866;2023-04-15T08:23:55;1.70;;;1.40;;
5022;SDS011;2530;47.990;7.866;2023-04-15T08:26:21;1.60;;;1.50;;
5022;SDS011;2530;47.990;7.866;2023-04-15T08:28:47;1.85;;;1.65;;
5022;SDS011;2530;47.990;7.866;2023-04-15T08:31:13;2.38;;;1.30;;
5022;SDS011;2530;47.990;7.866;2023-04-15T08:33:40;1.70;;;1.60;;
5022;SDS011;2530;47.990;7.866;2023-04-15T08:36:06;2.60;;;1.92;;
5022;SDS011;2530;47.990;7.866;2023-04-15T08:38:31;2.65;;;1.70;;
5022;SDS011;2530;47.990;7.866;2023-04-15T08:41:00;2.50;;;1.70;;
5022;SDS011;2530;47.990;7.866;2023-04-15T08:43:32;1.63;;;1.52;;
5022;SDS011;2530;47.990;7.866;2023-04-15T08:45:59;2.40;;;1.90;;
5022;SDS011;2530;47.990;7.866;2023-04-15T08:48:29;2.70;;;1.40;;
5022;SDS011;2530;47.990;7.866;2023-04-15T08:50:57;3.07;;;1.60;;
5022;SDS011;2530;47.990;7.866;2023-04-15T08:53:23;2.45;;;1.30;;
5022;SDS011;2530;47.990;7.866;2023-04-15T08:55:50;1.70;;;1.25;;
5022;SDS011;2530;47.990;7.866;2023-04-15T08:58:16;2.17;;;1.55;;
5022;SDS011;2530;47.990;7.866;2023-04-15T09:00:43;2.70;;;1.50;;
5022;SDS011;2530;47.990;7.866;2023-04-15T09:03:09;4.65;;;1.80;;
5022;SDS011;2530;47.990;7.866;2023-04-15T09:05:35;2.90;;;1.60;;
5022;SDS011;2530;47.990;7.866;2023-04-15T09:08:02;2.30;;;1.50;;
5022;SDS011;2530;47.990;7.866;2023-04-15T09:10:29;1.50;;;1.40;;
5022;SDS011;2530;47.990;7.866;2023-04-15T09:12:55;1.67;;;1.30;;
5022;SDS011;2530;47.990;7.866;2023-04-15T09:15:23;1.77;;;1.30;;
5022;SDS011;2530;47.990;7.866;2023-04-15T09:17:49;1.70;;;1.50;;
5022;SDS011;2530;47.990;7.866;2023-04-15T09:20:15;1.60;;;1.20;;
5022;SDS011;2530;47.990;7.866;2023-04-15T09:22:43;1.70;;;1.42;;
5022;SDS011;2530;47.990;7.866;2023-04-15T09:27:54;1.50;;;1.38;;
5022;SDS011;2530;47.990;7.866;2023-04-15T09:30:22;1.40;;;1.30;;
5022;SDS011;2530;47.990;7.866;2023-04-15T09:32:57;2.67;;;1.52;;
5022;SDS011;2530;47.990;7.866;2023-04-15T09:35:25;3.00;;;1.60;;
5022;SDS011;2530;47.990;7.866;2023-04-15T09:38:01;3.60;;;1.80;;
5022;SDS011;2530;47.990;7.866;2023-04-15T09:40:38;1.10;;;1.00;;
5022;SDS011;2530;47.990;7.866;2023-04-15T09:43:06;2.50;;;1.80;;
5022;SDS011;2530;47.990;7.866;2023-04-15T09:45:33;1.95;;;1.60;;
5022;SDS011;2530;47.990;7.866;2023-04-15T09:48:13;1.73;;;1.42;;
5022;SDS011;2530;47.990;7.866;2023-04-15T09:50:41;2.17;;;1.30;;
5022;SDS011;2530;47.990;7.866;2023-04-15T09:53:14;2.83;;;1.50;;
5022;SDS011;2530;47.990;7.866;2023-04-15T09:55:44;3.42;;;1.80;;
5022;SDS011;2530;47.990;7.866;2023-04-15T09:58:16;1.92;;;1.67;;
5022;SDS011;2530;47.990;7.866;2023-04-15T10:00:43;2.10;;;1.70;;
5022;SDS011;2530;47.990;7.866;2023-04-15T10:03:11;2.80;;;1.30;;
5022;SDS011;2530;47.990;7.866;2023-04-15T10:05:37;2.20;;;1.63;;
5022;SDS011;2530;47.990;7.866;2023-04-15T10:08:03;2.45;;;2.00;;
5022;SDS011;2530;47.990;7.866;2023-04-15T10:10:29;3.05;;;1.80;;
5022;SDS011;2530;47.990;7.866;2023-04-15T10:12:57;2.90;;;1.60;;
5022;SDS011;2530;47.990;7.866;2023-04-15T10:15:23;1.70;;;1.60;;
5022;SDS011;2530;47.990;7.866;2023-04-15T10:17:49;3.17;;;1.92;;
5022;SDS011;2530;47.990;7.866;2023-04-15T10:20:17;1.67;;;1.53;;
5022;SDS011;2530;47.990;7.866;2023-04-15T10:22:44;3.60;;;1.95;;
5022;SDS011;2530;47.990;7.866;2023-04-15T10:25:12;2.30;;;1.77;;
5022;SDS011;2530;47.990;7.866;2023-04-15T10:27:39;1.88;;;1.77;;
5022;SDS011;2530;47.990;7.866;2023-04-15T10:30:08;2.03;;;1.52;;
5022;SDS011;2530;47.990;7.866;2023-04-15T10:32:33;2.15;;;1.65;;
5022;SDS011;2530;47.990;7.866;2023-04-15T10:35:00;1.80;;;1.70;;
5022;SDS011;2530;47.990;7.866;2023-04-15T10:37:36;2.15;;;1.70;;
5022;SDS011;2530;47.990;7.866;2023-04-15T10:40:22;2.13;;;1.67;;
5022;SDS011;2530;47.990;7.866;2023-04-15T10:42:49;2.70;;;1.57;;
5022;SDS011;2530;47.990;7.866;2023-04-15T10:45:15;1.80;;;1.40;;
5022;SDS011;2530;47.990;7.866;2023-04-15T10:47:42;1.90;;;1.80;;
5022;SDS011;2530;47.990;7.866;2023-04-15T10:50:08;3.50;;;1.70;;
5022;SDS011;2530;47.990;7.866;2023-04-15T10:52:34;2.10;;;1.70;;
5022;SDS011;2530;47.990;7.866;2023-04-15T10:57:41;2.63;;;2.10;;
5022;SDS011;2530;47.990;7.866;2023-04-15T11:05:17;2.70;;;1.90;;
5022;SDS011;2530;47.990;7.866;2023-04-15T11:07:49;2.90;;;1.83;;
5022;SDS011;2530;47.990;7.866;2023-04-15T11:12:42;2.90;;;1.90;;
5022;SDS011;2530;47.990;7.866;2023-04-15T11:15:28;3.47;;;2.00;;
5022;SDS011;2530;47.990;7.866;2023-04-15T11:17:57;3.30;;;1.90;;
5022;SDS011;2530;47.990;7.866;2023-04-15T11:20:32;2.28;;;1.80;;
5022;SDS011;2530;47.990;7.866;2023-04-15T11:22:58;3.22;;;1.70;;
5022;SDS011;2530;47.990;7.866;2023-04-15T11:25:27;2.80;;;2.10;;
5022;SDS011;2530;47.990;7.866;2023-04-15T11:27:54;2.40;;;1.83;;
5022;SDS011;2530;47.990;7.866;2023-04-15T11:30:24;2.30;;;1.70;;
5022;SDS011;2530;47.990;7.866;2023-04-15T11:32:53;3.03;;;1.83;;
5022;SDS011;2530;47.990;7.866;2023-04-15T11:35:19;3.45;;;2.13;;
5022;SDS011;2530;47.990;7.866;2023-04-15T11:37:46;2.67;;;1.90;;
5022;SDS011;2530;47.990;7.866;2023-04-15T11:40:13;2.88;;;2.42;;
5022;SDS011;2530;47.990;7.866;2023-04-15T11:42:41;3.90;;;2.20;;
5022;SDS011;2530;47.990;7.866;2023-04-15T11:47:34;2.92;;;1.90;;
5022;SDS011;2530;47.990;7.866;2023-04-15T11:52:55;2.60;;;2.40;;
5022;SDS011;2530;47.990;7.866;2023-04-15T11:55:21;3.50;;;2.33;;
5022;SDS011;2530;47.990;7.866;2023-04-15T12:00:35;3.45;;;2.35;;
5022;SDS011;2530;47.990;7.866;2023-04-15T12:03:12;2.78;;;2.00;;
5022;SDS011;2530;47.990;7.866;2023-04-15T12:13:58;3.88;;;2.50;;
5022;SDS011;2530;47.990;7.866;2023-04-15T12:16:28;3.38;;;2.60;;
5022;SDS011;2530;47.990;7.866;2023-04-15T12:18:55;4.13;;;2.50;;
5022;SDS011;2530;47.990;7.866;2023-04-15T12:21:26;3.20;;;2.40;;
5022;SDS011;2530;47.990;7.866;2023-04-15T12:24:00;3.28;;;2.83;;
5022;SDS011;2530;47.990;7.866;2023-04-15T12:26:27;2.70;;;2.20;;
5022;SDS011;2530;47.990;7.866;2023-04-15T12:28:54;3.63;;;2.60;;
5022;SDS011;2530;47.990;7.866;2023-04-15T12:31:21;3.05;;;2.75;;
5022;SDS011;2530;47.990;7.866;2023-04-15T12:33:47;4.20;;;2.45;;
5022;SDS011;2530;47.990;7.866;2023-04-15T12:36:13;3.42;;;2.30;;
5022;SDS011;2530;47.990;7.866;2023-04-15T12:38:39;4.57;;;2.55;;
5022;SDS011;2530;47.990;7.866;2023-04-15T12:41:05;2.78;;;2.33;;
5022;SDS011;2530;47.990;7.866;2023-04-15T12:43:30;4.30;;;2.60;;
5022;SDS011;2530;47.990;7.866;2023-04-15T12:45:56;3.50;;;2.30;;
5022;SDS011;2530;47.990;7.866;2023-04-15T12:48:21;2.80;;;2.40;;
5022;SDS011;2530;47.990;7.866;2023-04-15T12:50:47;3.00;;;2.47;;
5022;SDS011;2530;47.990;7.866;2023-04-15T12:53:13;3.50;;;2.40;;
5022;SDS011;2530;47.990;7.866;2023-04-15T12:55:38;3.88;;;2.38;;
5022;SDS011;2530;47.990;7.866;2023-04-15T12:58:04;2.50;;;2.30;;
5022;SDS011;2530;47.990;7.866;2023-04-15T13:00:29;3.07;;;2.30;;
5022;SDS011;2530;47.990;7.866;2023-04-15T13:02:58;3.65;;;2.20;;
5022;SDS011;2530;47.990;7.866;2023-04-15T13:05:24;2.60;;;2.20;;
5022;SDS011;2530;47.990;7.866;2023-04-15T13:07:49;3.07;;;1.87;;
5022;SDS011;2530;47.990;7.866;2023-04-15T13:10:15;3.08;;;2.30;;
5022;SDS011;2530;47.990;7.866;2023-04-15T13:12:40;2.90;;;2.53;;
5022;SDS011;2530;47.990;7.866;2023-04-15T13:15:06;2.60;;;2.10;;
5022;SDS011;2530;47.990;7.866;2023-04-15T13:17:35;7.83;;;2.60;;
5022;SDS011;2530;47.990;7.866;2023-04-15T13:20:00;5.23;;;2.27;;
5022;SDS011;2530;47.990;7.866;2023-04-15T13:22:26;6.13;;;2.72;;
5022;SDS011;2530;47.990;7.866;2023-04-15T13:24:51;3.40;;;2.07;;
5022;SDS011;2530;47.990;7.866;2023-04-15T13:27:17;3.47;;;2.50;;
5022;SDS011;2530;47.990;7.866;2023-04-15T13:29:42;2.85;;;2.47;;
5022;SDS011;2530;47.990;7.866;2023-04-15T13:32:08;2.00;;;1.80;;
5022;SDS011;2530;47.990;7.866;2023-04-15T13:34:33;2.40;;;2.00;;
5022;SDS011;2530;47.990;7.866;2023-04-15T13:37:04;3.20;;;2.20;;
5022;SDS011;2530;47.990;7.866;2023-04-15T13:39:33;5.85;;;2.28;;
5022;SDS011;2530;47.990;7.866;2023-04-15T13:41:59;2.35;;;2.00;;
5022;SDS011;2530;47.990;7.866;2023-04-15T13:44:24;5.63;;;2.10;;
5022;SDS011;2530;47.990;7.866;2023-04-15T13:46:51;3.13;;;1.90;;
5022;SDS011;2530;47.990;7.866;2023-04-15T13:49:17;7.40;;;2.10;;
5022;SDS011;2530;47.990;7.866;2023-04-15T13:51:42;4.70;;;2.10;;
5022;SDS011;2530;47.990;7.866;2023-04-15T13:54:08;6.00;;;1.65;;
5022;SDS011;2530;47.990;7.866;2023-04-15T13:56:33;2.30;;;1.40;;
5022;SDS011;2530;47.990;7.866;2023-04-15T13:58:59;2.30;;;1.70;;
5022;SDS011;2530;47.990;7.866;2023-04-15T14:01:26;2.50;;;2.30;;
5022;SDS011;2530;47.990;7.866;2023-04-15T14:03:52;3.83;;;2.70;;
5022;SDS011;2530;47.990;7.866;2023-04-15T14:06:17;4.47;;;3.73;;
5022;SDS011;2530;47.990;7.866;2023-04-15T14:08:43;3.90;;;3.20;;
5022;SDS011;2530;47.990;7.866;2023-04-15T14:11:08;5.97;;;2.90;;
5022;SDS011;2530;47.990;7.866;2023-04-15T14:13:34;5.40;;;4.47;;
5022;SDS011;2530;47.990;7.866;2023-04-15T14:16:00;4.70;;;2.70;;
5022;SDS011;2530;47.990;7.866;2023-04-15T14:18:26;4.70;;;2.70;;
5022;SDS011;2530;47.990;7.866;2023-04-15T14:20:51;3.33;;;2.50;;
5022;SDS011;2530;47.990;7.866;2023-04-15T14:23:17;3.30;;;2.30;;
5022;SDS011;2530;47.990;7.866;2023-04-15T14:25:43;3.43;;;2.30;;
5022;SDS011;2530;47.990;7.866;2023-04-15T14:28:08;3.53;;;2.17;;
5022;SDS011;2530;47.990;7.866;2023-04-15T14:30:34;4.07;;;2.28;;
5022;SDS011;2530;47.990;7.866;2023-04-15T14:32:59;3.00;;;2.10;;
5022;SDS011;2530;47.990;7.866;2023-04-15T14:35:25;4.77;;;2.30;;
5022;SDS011;2530;47.990;7.866;2023-04-15T14:37:54;4.87;;;2.23;;
5022;SDS011;2530;47.990;7.866;2023-04-15T14:40:20;2.80;;;2.30;;
5022;SDS011;2530;47.990;7.866;2023-04-15T14:42:46;2.60;;;2.40;;
5022;SDS011;2530;47.990;7.866;2023-04-15T14:45:11;2.70;;;2.00;;
5022;SDS011;2530;47.990;7.866;2023-04-15T14:47:37;4.00;;;2.50;;
5022;SDS011;2530;47.990;7.866;2023-04-15T14:50:02;1.95;;;1.85;;
5022;SDS011;2530;47.990;7.866;2023-04-15T14:52:31;3.30;;;2.10;;
5022;SDS011;2530;47.990;7.866;2023-04-15T14:55:03;4.10;;;2.20;;
5022;SDS011;2530;47.990;7.866;2023-04-15T14:57:30;2.78;;;2.00;;
5022;SDS011;2530;47.990;7.866;2023-04-15T14:59:55;3.90;;;2.07;;
5022;SDS011;2530;47.990;7.866;2023-04-15T15:02:21;3.63;;;2.50;;
5022;SDS011;2530;47.990;7.866;2023-04-15T15:04:46;3.30;;;1.90;;
5022;SDS011;2530;47.990;7.866;2023-04-15T15:07:12;4.00;;;2.30;;
5022;SDS011;2530;47.990;7.866;2023-04-15T15:09:37;4.15;;;1.80;;
5022;SDS011;2530;47.990;7.866;2023-04-15T15:12:03;3.23;;;1.90;;
5022;SDS011;2530;47.990;7.866;2023-04-15T15:14:28;2.60;;;1.90;;
5022;SDS011;2530;47.990;7.866;2023-04-15T15:16:54;2.90;;;1.90;;
5022;SDS011;2530;47.990;7.866;2023-04-15T15:19:20;2.00;;;1.80;;
5022;SDS011;2530;47.990;7.866;2023-04-15T15:21:45;3.27;;;1.87;;
5022;SDS011;2530;47.990;7.866;2023-04-15T15:24:11;2.00;;;1.67;;
5022;SDS011;2530;47.990;7.866;2023-04-15T15:26:36;4.40;;;1.90;;
5022;SDS011;2530;47.990;7.866;2023-04-15T15:29:02;5.20;;;1.80;;
5022;SDS011;2530;47.990;7.866;2023-04-15T15:31:27;3.38;;;1.95;;
5022;SDS011;2530;47.990;7.866;2023-04-15T15:33:53;3.37;;;1.90;;
5022;SDS011;2530;47.990;7.866;2023-04-15T15:36:18;3.30;;;1.70;;
5022;SDS011;2530;47.990;7.866;2023-04-15T15:38:44;2.30;;;1.50;;